createdAt,value
2022-11-08T00:01:34.941Z,44.83
2022-11-08T00:04:04.334Z,38.40
2022-11-08T00:06:50.303Z,39.47
2022-11-08T00:09:36.305Z,42.17
2022-11-08T00:12:23.226Z,37.85
2022-11-08T00:14:50.686Z,37.17
2022-11-08T00:17:18.836Z,35.30
2022-11-08T00:19:46.498Z,33.97
2022-11-08T00:22:14.465Z,39.92
2022-11-08T00:24:42.228Z,33.55
2022-11-08T00:27:13.491Z,33.03
2022-11-08T00:29:41.046Z,30.60
2022-11-08T00:32:09.671Z,32.03
2022-11-08T00:34:37.023Z,32.67
2022-11-08T00:37:04.570Z,33.05
2022-11-08T00:39:32.055Z,34.03
2022-11-08T00:41:59.489Z,31.25
2022-11-08T00:44:26.829Z,35.53
2022-11-08T00:46:54.492Z,38.88
2022-11-08T00:49:22.299Z,35.75
2022-11-08T00:51:49.664Z,35.03
2022-11-08T00:54:18.115Z,38.10
2022-11-08T00:56:46.261Z,33.78
2022-11-08T00:59:14.274Z,35.92
2022-11-08T01:01:42.589Z,41.28
2022-11-08T01:04:11.151Z,47.15
2022-11-08T01:06:39.069Z,39.50
2022-11-08T01:09:06.595Z,46.88
2022-11-08T01:11:34.176Z,50.13
2022-11-08T01:14:02.136Z,46.17
2022-11-08T01:16:30.822Z,42.55
2022-11-08T01:18:58.758Z,42.53
2022-11-08T01:21:26.724Z,42.28
2022-11-08T01:23:54.594Z,59.00
2022-11-08T01:26:26.503Z,44.13
2022-11-08T01:28:54.281Z,43.72
2022-11-08T01:31:22.782Z,50.15
2022-11-08T01:33:51.825Z,48.88
2022-11-08T01:36:20.958Z,49.67
2022-11-08T01:38:48.621Z,50.40
2022-11-08T01:41:16.835Z,50.05
2022-11-08T01:43:45.727Z,55.20
2022-11-08T01:46:19.434Z,49.15
2022-11-08T01:49:00.243Z,50.25
2022-11-08T01:51:30.180Z,51.03
2022-11-08T01:53:58.197Z,52.45
2022-11-08T01:56:25.550Z,52.72
2022-11-08T01:58:53.938Z,55.17
2022-11-08T02:01:21.488Z,53.13
2022-11-08T02:03:49.130Z,52.13
2022-11-08T02:06:16.874Z,50.35
2022-11-08T02:08:45.101Z,57.60
2022-11-08T02:11:13.859Z,49.47
2022-11-08T02:13:41.383Z,49.63
2022-11-08T02:16:12.972Z,48.90
2022-11-08T02:18:40.767Z,44.42
2022-11-08T02:21:11.514Z,47.47
2022-11-08T02:23:41.949Z,41.28
2022-11-08T02:26:09.390Z,47.13
2022-11-08T02:28:54.938Z,48.72
2022-11-08T02:33:50.064Z,51.47
2022-11-08T02:36:22.255Z,45.83
2022-11-08T02:38:54.694Z,58.33
2022-11-08T02:41:22.299Z,49.85
2022-11-08T02:43:49.652Z,49.20
2022-11-08T02:46:17.002Z,46.42
2022-11-08T02:48:44.358Z,51.53
2022-11-08T02:51:11.844Z,42.00
2022-11-08T02:53:39.258Z,43.03
2022-11-08T02:56:06.747Z,39.55
2022-11-08T02:58:34.083Z,36.78
2022-11-08T03:01:01.675Z,39.60
2022-11-08T03:03:29.091Z,36.17
2022-11-08T03:05:59.500Z,44.10
2022-11-08T03:08:26.892Z,42.95
2022-11-08T03:10:54.210Z,43.47
2022-11-08T03:13:21.678Z,44.60
2022-11-08T03:15:49.070Z,49.30
2022-11-08T03:18:16.801Z,47.80
2022-11-08T03:20:44.582Z,43.42
2022-11-08T03:23:12.040Z,46.28
2022-11-08T03:25:39.434Z,42.08
2022-11-08T03:28:09.236Z,41.60
2022-11-08T03:30:37.236Z,39.92
2022-11-08T03:33:05.038Z,42.58
2022-11-08T03:35:32.920Z,43.90
2022-11-08T03:38:00.275Z,42.03
2022-11-08T03:40:28.121Z,51.65
2022-11-08T03:43:00.010Z,42.80
2022-11-08T03:45:27.425Z,44.65
2022-11-08T03:47:54.898Z,53.08
2022-11-08T03:50:22.310Z,52.78
2022-11-08T03:52:56.063Z,44.05
2022-11-08T03:55:25.137Z,44.35
2022-11-08T03:57:52.589Z,46.28
2022-11-08T04:00:21.523Z,46.38
2022-11-08T04:02:49.134Z,50.00
2022-11-08T04:05:17.111Z,51.10
2022-11-08T04:07:44.473Z,48.58
2022-11-08T04:10:12.555Z,39.33
2022-11-08T04:13:02.045Z,41.65
2022-11-08T04:15:30.530Z,36.05
2022-11-08T04:18:17.147Z,40.55
2022-11-08T04:21:04.677Z,40.72
2022-11-08T04:23:33.130Z,37.47
2022-11-08T04:26:01.808Z,32.70
2022-11-08T04:28:32.943Z,36.88
2022-11-08T04:31:03.031Z,38.42
2022-11-08T04:33:30.836Z,44.10
2022-11-08T04:36:02.099Z,37.00
2022-11-08T04:38:30.549Z,50.42
2022-11-08T04:41:16.452Z,73.82
2022-11-08T04:43:43.866Z,85.63
2022-11-08T04:46:12.640Z,54.08
2022-11-08T04:48:40.310Z,65.07
2022-11-08T04:51:09.284Z,65.22
2022-11-08T04:53:36.657Z,70.30
2022-11-08T04:56:24.351Z,99.95
2022-11-08T04:58:53.165Z,97.05
2022-11-08T05:01:21.975Z,100.78
2022-11-08T05:03:50.195Z,108.28
2022-11-08T05:06:25.834Z,82.30
2022-11-08T05:08:54.949Z,67.22
2022-11-08T05:11:23.177Z,38.25
2022-11-08T05:13:50.983Z,29.55
2022-11-08T05:16:20.032Z,38.03
2022-11-08T05:18:47.581Z,28.98
2022-11-08T05:21:34.719Z,40.05
2022-11-08T05:24:02.905Z,41.65
2022-11-08T05:26:30.379Z,30.83
2022-11-08T05:28:57.774Z,42.35
2022-11-08T05:31:25.242Z,31.27
2022-11-08T05:33:55.868Z,36.45
2022-11-08T05:36:23.308Z,30.90
2022-11-08T05:38:50.676Z,34.80
2022-11-08T05:41:19.738Z,31.48
2022-11-08T05:43:48.105Z,31.27
2022-11-08T05:46:15.720Z,28.63
2022-11-08T05:48:44.118Z,29.70
2022-11-08T05:51:12.377Z,32.67
2022-11-08T05:53:42.785Z,60.00
2022-11-08T05:56:10.285Z,62.13
2022-11-08T05:58:37.912Z,29.95
2022-11-08T06:01:12.845Z,39.15
2022-11-08T06:03:40.647Z,21.30
2022-11-08T06:06:09.519Z,25.73
2022-11-08T06:08:37.274Z,25.27
2022-11-08T06:11:05.411Z,28.25
2022-11-08T06:13:33.429Z,28.08
2022-11-08T06:16:02.179Z,37.90
2022-11-08T06:18:30.074Z,35.22
2022-11-08T06:20:59.366Z,34.85
2022-11-08T06:23:27.256Z,40.78
2022-11-08T06:25:54.761Z,34.90
2022-11-08T06:28:22.386Z,39.28
2022-11-08T06:30:50.004Z,42.85
2022-11-08T06:33:17.576Z,51.33
2022-11-08T06:35:45.231Z,68.22
2022-11-08T06:38:12.642Z,61.50
2022-11-08T06:40:40.453Z,60.60
2022-11-08T06:43:07.809Z,51.15
2022-11-08T06:45:35.259Z,56.72
2022-11-08T06:48:03.421Z,48.88
2022-11-08T06:50:31.726Z,41.33
2022-11-08T06:52:59.547Z,47.05
2022-11-08T06:55:26.962Z,49.38
2022-11-08T06:57:54.597Z,54.72
2022-11-08T07:00:22.050Z,44.58
2022-11-08T07:02:55.742Z,49.28
2022-11-08T07:05:23.641Z,41.67
2022-11-08T07:07:54.126Z,35.92
2022-11-08T07:10:22.887Z,43.60
2022-11-08T07:12:50.966Z,37.17
2022-11-08T07:15:18.459Z,39.50
2022-11-08T07:17:45.889Z,43.47
2022-11-08T07:20:13.389Z,50.70
2022-11-08T07:22:40.750Z,43.72
2022-11-08T07:25:08.432Z,38.75
2022-11-08T07:27:35.926Z,37.42
2022-11-08T07:30:03.345Z,44.83
2022-11-08T07:32:30.814Z,34.83
2022-11-08T07:34:58.143Z,27.27
2022-11-08T07:37:25.574Z,26.88
2022-11-08T07:39:52.946Z,29.45
2022-11-08T07:42:20.351Z,27.83
2022-11-08T07:45:00.904Z,24.83
2022-11-08T07:47:28.383Z,20.92
2022-11-08T07:49:55.719Z,22.13
2022-11-08T07:52:23.192Z,18.15
2022-11-08T07:54:50.555Z,22.02
2022-11-08T07:57:18.029Z,23.00
2022-11-08T07:59:45.363Z,24.05
2022-11-08T08:02:13.183Z,21.92
2022-11-08T08:04:40.611Z,25.58
2022-11-08T08:07:08.180Z,31.27
2022-11-08T08:09:36.169Z,26.13
2022-11-08T08:12:03.856Z,28.75
2022-11-08T08:14:31.477Z,29.67
2022-11-08T08:16:58.943Z,21.75
2022-11-08T08:19:26.315Z,25.08
2022-11-08T08:21:53.807Z,30.65
2022-11-08T08:24:21.296Z,23.42
2022-11-08T08:26:48.871Z,30.45
2022-11-08T08:29:16.223Z,28.40
2022-11-08T08:31:43.687Z,36.53
2022-11-08T08:34:11.017Z,27.70
2022-11-08T08:36:38.453Z,27.75
2022-11-08T08:39:05.888Z,26.77
2022-11-08T08:41:33.265Z,29.38
2022-11-08T08:44:01.882Z,26.83
2022-11-08T08:46:29.283Z,31.38
2022-11-08T08:48:56.652Z,23.58
2022-11-08T08:51:24.152Z,32.25
2022-11-08T08:53:51.483Z,34.53
2022-11-08T08:56:18.886Z,22.33
2022-11-08T08:58:46.383Z,24.95
2022-11-08T09:04:02.720Z,29.50
2022-11-08T09:06:30.586Z,25.48
2022-11-08T09:08:58.022Z,24.35
2022-11-08T09:11:25.390Z,31.77
2022-11-08T09:13:52.818Z,23.67
2022-11-08T09:16:20.155Z,27.17
2022-11-08T09:18:47.809Z,27.52
2022-11-08T09:21:15.276Z,30.45
2022-11-08T09:23:42.836Z,30.25
2022-11-08T09:26:11.266Z,25.92
2022-11-08T09:28:38.733Z,25.77
2022-11-08T09:31:10.483Z,29.58
2022-11-08T09:33:39.250Z,27.23
2022-11-08T09:36:07.665Z,27.50
2022-11-08T09:38:35.179Z,36.70
2022-11-08T09:41:08.655Z,36.08
2022-11-08T09:43:52.913Z,33.20
2022-11-08T09:46:27.635Z,23.05
2022-11-08T09:48:56.362Z,26.20
2022-11-08T09:51:25.022Z,29.92
2022-11-08T09:53:57.037Z,26.52
2022-11-08T09:56:35.468Z,28.60
2022-11-08T09:59:27.493Z,31.02
2022-11-08T10:01:54.950Z,26.55
2022-11-08T10:04:24.555Z,30.77
2022-11-08T10:06:58.207Z,25.10
2022-11-08T10:09:32.413Z,25.50
2022-11-08T10:12:18.758Z,24.08
2022-11-08T10:15:00.216Z,23.63
2022-11-08T10:17:33.790Z,23.73
2022-11-08T10:20:21.501Z,26.35
2022-11-08T10:22:58.009Z,28.85
2022-11-08T10:25:25.445Z,42.95
2022-11-08T10:27:54.733Z,59.22
2022-11-08T10:30:24.115Z,56.60
2022-11-08T10:32:54.310Z,98.38
2022-11-08T10:35:27.979Z,65.50
2022-11-08T10:37:56.583Z,104.97
2022-11-08T10:40:29.972Z,53.55
2022-11-08T10:43:02.510Z,194.40
2022-11-08T10:45:32.983Z,181.82
2022-11-08T10:48:00.646Z,93.40
2022-11-08T10:50:50.762Z,140.32
2022-11-08T10:53:21.601Z,76.20
2022-11-08T10:55:50.939Z,30.02
2022-11-08T10:58:37.576Z,115.30
2022-11-08T11:01:14.309Z,94.40
2022-11-08T11:03:41.738Z,65.57
2022-11-08T11:06:21.708Z,146.45
2022-11-08T11:08:50.075Z,53.42
2022-11-08T11:11:28.180Z,110.80
2022-11-08T11:14:07.940Z,88.45
2022-11-08T11:17:11.263Z,76.75
2022-11-08T11:19:38.916Z,73.65
2022-11-08T11:22:08.001Z,61.60
2022-11-08T11:24:36.386Z,140.00
2022-11-08T11:27:05.949Z,82.82
2022-11-08T11:29:37.479Z,75.18
2022-11-08T11:32:24.024Z,41.13
2022-11-08T11:34:53.026Z,84.88
2022-11-08T11:37:23.470Z,94.57
2022-11-08T11:40:09.623Z,31.95
2022-11-08T11:42:46.687Z,50.95
2022-11-08T11:45:22.767Z,27.85
2022-11-08T11:47:57.263Z,29.35
2022-11-08T11:50:28.022Z,26.33
2022-11-08T11:52:56.405Z,49.53
2022-11-08T11:55:28.131Z,29.77
2022-11-08T11:58:14.583Z,39.92
2022-11-08T12:00:47.326Z,23.55
2022-11-08T12:03:21.505Z,22.67
2022-11-08T12:06:02.454Z,43.28
2022-11-08T12:08:29.919Z,23.88
2022-11-08T12:11:06.549Z,46.53
2022-11-08T12:13:37.056Z,22.33
2022-11-08T12:16:07.653Z,23.15
2022-11-08T12:18:43.254Z,23.08
2022-11-08T12:21:23.385Z,31.63
2022-11-08T12:23:53.882Z,18.35
2022-11-08T12:26:27.497Z,27.48
2022-11-08T12:29:19.766Z,31.92
2022-11-08T12:32:07.444Z,20.45
2022-11-08T12:34:37.973Z,18.67
2022-11-08T12:37:27.493Z,25.55
2022-11-08T12:40:02.073Z,22.27
2022-11-08T12:42:29.590Z,23.77
2022-11-08T12:45:02.881Z,30.13
2022-11-08T12:47:42.919Z,25.38
2022-11-08T12:50:20.754Z,38.60
2022-11-08T12:53:06.882Z,22.23
2022-11-08T12:55:36.366Z,21.60
2022-11-08T12:58:10.163Z,21.05
2022-11-08T13:00:40.524Z,16.70
2022-11-08T13:03:26.422Z,18.27
2022-11-08T13:06:06.144Z,23.23
2022-11-08T13:09:02.632Z,36.08
2022-11-08T13:11:36.196Z,19.38
2022-11-08T13:14:03.799Z,36.35
2022-11-08T13:16:41.616Z,15.35
2022-11-08T13:19:26.865Z,17.42
2022-11-08T13:24:43.264Z,19.73
2022-11-08T13:27:22.811Z,20.67
2022-11-08T13:29:50.305Z,24.77
2022-11-08T13:32:30.432Z,20.83
2022-11-08T13:35:08.264Z,23.23
2022-11-08T13:37:35.711Z,19.67
2022-11-08T13:40:15.314Z,21.92
2022-11-08T13:43:00.142Z,22.00
2022-11-08T13:45:32.822Z,20.75
2022-11-08T13:48:04.851Z,36.85
2022-11-08T13:50:33.818Z,19.58
2022-11-08T13:53:25.745Z,20.70
2022-11-08T13:55:55.542Z,21.58
2022-11-08T13:58:31.837Z,24.80
2022-11-08T14:00:59.996Z,21.13
2022-11-08T14:03:33.412Z,20.45
2022-11-08T14:06:06.949Z,21.75
2022-11-08T14:08:37.334Z,21.92
2022-11-08T14:11:10.792Z,22.90
2022-11-08T14:13:53.505Z,20.58
2022-11-08T14:16:23.627Z,35.03
2022-11-08T14:18:51.167Z,50.28
2022-11-08T14:21:20.182Z,23.73
2022-11-08T14:23:50.396Z,25.33
2022-11-08T14:26:25.530Z,22.38
2022-11-08T14:28:53.820Z,29.00
2022-11-08T14:31:25.700Z,37.72
2022-11-08T14:33:53.852Z,33.55
2022-11-08T14:36:22.010Z,49.22
2022-11-08T14:39:03.069Z,42.33
2022-11-08T14:41:30.949Z,47.45
2022-11-08T14:44:00.253Z,38.13
2022-11-08T14:46:27.627Z,36.45
2022-11-08T14:48:56.707Z,35.67
2022-11-08T14:51:24.615Z,41.42
2022-11-08T14:53:54.001Z,95.57
2022-11-08T14:56:21.378Z,52.05
2022-11-08T14:58:49.687Z,34.22
2022-11-08T15:01:19.949Z,40.28
2022-11-08T15:04:00.877Z,50.08
2022-11-08T15:06:48.766Z,51.30
2022-11-08T15:09:19.055Z,36.90
2022-11-08T15:11:52.758Z,42.47
2022-11-08T15:14:22.155Z,40.80
2022-11-08T15:16:50.535Z,35.88
2022-11-08T15:19:20.970Z,41.45
2022-11-08T15:21:51.705Z,47.17
2022-11-08T15:24:26.157Z,43.38
2022-11-08T15:27:01.769Z,48.08
2022-11-08T15:29:29.218Z,43.58
2022-11-08T15:32:01.868Z,48.67
2022-11-08T15:34:32.568Z,51.40
2022-11-08T15:37:00.053Z,47.40
2022-11-08T15:39:39.119Z,48.10
2022-11-08T15:42:13.160Z,63.40
2022-11-08T15:45:00.170Z,66.50
2022-11-08T15:47:42.896Z,73.15
2022-11-08T15:50:16.559Z,76.82
2022-11-08T15:52:44.767Z,83.57
2022-11-08T15:55:19.489Z,91.43
2022-11-08T15:57:47.679Z,119.43
2022-11-08T16:00:16.535Z,113.65
2022-11-08T16:02:44.478Z,89.78
2022-11-08T16:05:22.737Z,85.43
2022-11-08T16:07:50.515Z,207.57
2022-11-08T16:10:20.025Z,166.52
2022-11-08T16:12:48.570Z,190.70
2022-11-08T16:15:17.452Z,180.93
2022-11-08T16:17:44.923Z,186.25
2022-11-08T16:20:20.903Z,242.98
2022-11-08T16:22:48.322Z,283.23
2022-11-08T16:25:15.646Z,186.00
2022-11-08T16:27:43.050Z,151.65
2022-11-08T16:30:16.959Z,112.85
2022-11-08T16:32:44.545Z,128.23
2022-11-08T16:35:11.886Z,113.32
2022-11-08T16:37:39.419Z,85.53
2022-11-08T16:40:15.741Z,128.30
2022-11-08T16:42:43.201Z,94.63
2022-11-08T16:45:10.795Z,75.07
2022-11-08T16:47:38.264Z,84.18
2022-11-08T16:50:05.782Z,77.63
2022-11-08T16:52:33.232Z,75.65
2022-11-08T16:55:00.622Z,87.38
2022-11-08T16:57:34.608Z,76.65
2022-11-08T17:00:02.805Z,68.15
2022-11-08T17:02:31.737Z,72.80
2022-11-08T17:04:59.156Z,66.50
2022-11-08T17:07:29.842Z,79.45
2022-11-08T17:09:57.242Z,85.82
2022-11-08T17:12:24.714Z,93.90
2022-11-08T17:14:52.250Z,82.18
2022-11-08T17:17:19.672Z,78.95
2022-11-08T17:19:47.066Z,78.53
2022-11-08T17:22:14.450Z,81.05
2022-11-08T17:24:41.983Z,86.75
2022-11-08T17:27:09.433Z,84.28
2022-11-08T17:29:36.862Z,79.38
2022-11-08T17:32:04.278Z,78.32
2022-11-08T17:34:31.897Z,86.40
2022-11-08T17:36:59.281Z,94.72
2022-11-08T17:39:26.674Z,99.70
2022-11-08T17:41:54.129Z,107.45
2022-11-08T17:44:21.651Z,105.00
2022-11-08T17:46:50.213Z,104.93
2022-11-08T17:49:17.707Z,75.82
2022-11-08T17:51:45.097Z,66.22
2022-11-08T17:54:12.510Z,66.70
2022-11-08T17:56:40.069Z,63.90
2022-11-08T17:59:07.467Z,63.00
2022-11-08T18:01:34.998Z,72.05
2022-11-08T18:04:03.649Z,70.55
2022-11-08T18:06:34.599Z,83.13
2022-11-08T18:09:02.162Z,85.65
2022-11-08T18:11:29.831Z,90.40
2022-11-08T18:13:57.381Z,90.35
2022-11-08T18:16:24.735Z,87.82
2022-11-08T18:18:52.435Z,91.20
2022-11-08T18:21:20.722Z,86.35
2022-11-08T18:23:49.720Z,54.63
2022-11-08T18:26:18.471Z,62.65
2022-11-08T18:28:45.950Z,55.70
2022-11-08T18:31:14.526Z,51.70
2022-11-08T18:33:42.502Z,60.38
2022-11-08T18:36:20.493Z,57.55
2022-11-08T18:38:49.193Z,50.63
2022-11-08T18:41:17.779Z,40.72
2022-11-08T18:43:45.504Z,37.80
2022-11-08T18:46:14.433Z,39.42
2022-11-08T18:48:41.874Z,37.63
2022-11-08T18:51:10.744Z,34.85
2022-11-08T18:53:38.710Z,33.08
2022-11-08T18:56:07.311Z,30.40
2022-11-08T18:58:34.698Z,34.58
2022-11-08T19:01:02.338Z,32.08
2022-11-08T19:03:30.064Z,32.45
2022-11-08T19:05:57.710Z,33.17
2022-11-08T19:08:26.972Z,36.35
2022-11-08T19:10:54.316Z,37.38
2022-11-08T19:13:22.869Z,41.45
2022-11-08T19:15:59.548Z,38.45
2022-11-08T19:18:27.903Z,46.65
2022-11-08T19:20:58.635Z,55.90
2022-11-08T19:23:26.237Z,67.80
2022-11-08T19:25:54.417Z,57.13
2022-11-08T19:28:21.780Z,51.25
2022-11-08T19:30:53.235Z,49.65
2022-11-08T19:33:22.734Z,48.83
2022-11-08T19:35:50.214Z,39.10
2022-11-08T19:38:18.100Z,42.30
2022-11-08T19:40:47.417Z,42.70
2022-11-08T19:43:18.530Z,40.08
2022-11-08T19:45:50.785Z,44.40
2022-11-08T19:48:19.677Z,46.65
2022-11-08T19:50:47.386Z,45.55
2022-11-08T19:53:14.764Z,42.10
2022-11-08T19:55:42.118Z,44.53
2022-11-08T19:58:09.605Z,48.90
2022-11-08T20:00:37.572Z,44.70
2022-11-08T20:03:05.042Z,50.22
2022-11-08T20:05:32.802Z,43.90
2022-11-08T20:08:01.438Z,44.03
2022-11-08T20:10:30.099Z,46.72
2022-11-08T20:12:57.455Z,49.72
2022-11-08T20:15:24.820Z,48.17
2022-11-08T20:17:52.194Z,46.47
2022-11-08T20:20:19.999Z,46.50
2022-11-08T20:22:48.373Z,52.65
2022-11-08T20:25:16.023Z,48.20
2022-11-08T20:27:43.487Z,51.72
2022-11-08T20:30:11.218Z,53.58
2022-11-08T20:32:38.673Z,47.83
2022-11-08T20:35:06.274Z,51.83
2022-11-08T20:37:33.701Z,59.92
2022-11-08T20:40:01.043Z,57.72
2022-11-08T20:42:28.486Z,54.95
2022-11-08T20:44:55.864Z,49.78
2022-11-08T20:47:23.376Z,49.92
2022-11-08T20:49:50.936Z,46.13
2022-11-08T20:52:22.319Z,47.40
2022-11-08T20:54:49.876Z,43.92
2022-11-08T20:57:17.236Z,49.55
2022-11-08T20:59:44.664Z,43.85
2022-11-08T21:02:12.815Z,45.13
2022-11-08T21:04:40.318Z,44.30
2022-11-08T21:08:00.943Z,48.53
2022-11-08T21:10:07.694Z,41.00
2022-11-08T21:12:42.772Z,39.65
2022-11-08T21:15:10.359Z,41.92
2022-11-08T21:17:37.757Z,41.50
2022-11-08T21:20:05.273Z,51.30
2022-11-08T21:22:32.669Z,48.88
2022-11-08T21:25:00.011Z,42.60
2022-11-08T21:27:29.937Z,44.15
2022-11-08T21:29:57.615Z,39.55
2022-11-08T21:32:24.971Z,41.10
2022-11-08T21:34:52.529Z,37.97
2022-11-08T21:37:19.950Z,39.50
2022-11-08T21:39:47.471Z,42.90
2022-11-08T21:42:14.871Z,42.35
2022-11-08T21:44:42.304Z,40.40
2022-11-08T21:47:10.249Z,49.50
2022-11-08T21:49:37.642Z,48.10
2022-11-08T21:52:05.137Z,45.30
2022-11-08T21:54:32.610Z,44.40
2022-11-08T21:57:00.065Z,44.72
2022-11-08T21:59:27.517Z,46.53
2022-11-08T22:01:55.014Z,48.53
2022-11-08T22:04:22.454Z,42.50
2022-11-08T22:06:49.940Z,42.13
2022-11-08T22:09:17.409Z,39.10
2022-11-08T22:11:45.213Z,43.42
2022-11-08T22:14:12.702Z,39.67
2022-11-08T22:16:40.145Z,38.47
2022-11-08T22:19:07.947Z,38.42
2022-11-08T22:21:39.141Z,40.75
2022-11-08T22:24:06.906Z,36.47
2022-11-08T22:26:34.392Z,38.53
2022-11-08T22:29:03.282Z,40.88
2022-11-08T22:31:30.963Z,47.78
2022-11-08T22:33:58.400Z,39.65
2022-11-08T22:36:25.875Z,37.33
2022-11-08T22:38:53.267Z,39.67
2022-11-08T22:41:21.308Z,41.58
2022-11-08T22:43:49.251Z,31.73
2022-11-08T22:46:17.167Z,34.08
2022-11-08T22:48:44.571Z,34.50
2022-11-08T22:51:12.374Z,36.33
2022-11-08T22:53:39.791Z,37.10
2022-11-08T22:56:11.284Z,34.95
2022-11-08T22:58:39.672Z,38.55
2022-11-08T23:01:07.682Z,32.85
2022-11-08T23:03:35.175Z,35.80
2022-11-08T23:06:02.630Z,33.83
2022-11-08T23:08:30.282Z,40.08
2022-11-08T23:11:18.345Z,36.70
2022-11-08T23:14:04.892Z,33.47
2022-11-08T23:16:34.959Z,34.95
2022-11-08T23:19:21.873Z,31.05
2022-11-08T23:22:07.932Z,37.00
2022-11-08T23:24:35.390Z,33.70
2022-11-08T23:27:21.555Z,28.65
2022-11-08T23:30:08.310Z,32.78
2022-11-08T23:32:35.750Z,35.42
2022-11-08T23:35:03.206Z,35.80
2022-11-08T23:37:30.949Z,36.90
2022-11-08T23:40:17.242Z,32.65
2022-11-08T23:43:03.441Z,37.83
2022-11-08T23:45:30.850Z,36.97
2022-11-08T23:47:58.286Z,33.92
2022-11-08T23:50:25.723Z,32.05
2022-11-08T23:52:53.159Z,38.20
2022-11-08T23:55:20.518Z,34.30
2022-11-08T23:57:48.274Z,40.05
